Time;durP1;ratioP1;P1;durP2;ratioP2;P2;SDS_P1;SDS_P2;PMS_P1;PMS_P2;Temp;Humidity;BMP_temperature;BMP_pressure;BME280_temperature;BME280_humidity;BME280_pressure;Samples;Min_cycle;Max_cycle;Signal;HPM_P1;HPM_P2
2021/03/22 00:01:20;;;;;;;24.25;5.55;;;;;;;17.09;66.87;99709.97;4970885;28;20524;-66
2021/03/22 00:03:47;;;;;;;30.38;5.30;;;;;;;17.08;67.00;99718.00;4955403;28;20035;-66
2021/03/22 00:06:14;;;;;;;29.55;5.22;;;;;;;17.08;66.83;99721.53;4960584;28;20688;-66
2021/03/22 00:08:41;;;;;;;23.23;5.68;;;;;;;17.09;66.57;99730.41;4955454;28;20595;-66
2021/03/22 00:11:08;;;;;;;31.88;5.50;;;;;;;17.05;66.40;99729.66;4968846;28;20463;-67
2021/03/22 00:13:35;;;;;;;29.80;6.22;;;;;;;17.02;66.46;99736.84;4962228;28;20130;-66
2021/03/22 00:16:06;;;;;;;30.20;7.10;;;;;;;17.05;66.51;99734.97;4972626;28;20075;-66
2021/03/22 00:18:38;;;;;;;33.72;8.30;;;;;;;17.01;66.39;99727.97;4974130;28;20455;-67
2021/03/22 00:21:06;;;;;;;21.17;7.05;;;;;;;16.88;66.62;99728.31;4965297;28;20178;-66
2021/03/22 00:23:33;;;;;;;22.98;6.40;;;;;;;16.85;66.60;99742.63;4962837;28;20035;-66
2021/03/22 00:26:00;;;;;;;32.63;9.13;;;;;;;16.82;66.50;99757.81;4960598;28;20043;-66
2021/03/22 00:28:28;;;;;;;34.42;7.18;;;;;;;16.79;66.51;99753.47;4966374;28;20143;-66
2021/03/22 00:30:55;;;;;;;26.10;6.45;;;;;;;16.76;66.55;99757.97;4973362;28;20042;-66
2021/03/22 00:33:23;;;;;;;31.48;7.63;;;;;;;16.72;66.81;99775.84;4960633;28;20042;-66
2021/03/22 00:35:52;;;;;;;35.25;6.97;;;;;;;16.60;67.13;99777.03;4967286;28;20058;-66
2021/03/22 00:38:19;;;;;;;33.13;7.50;;;;;;;16.45;67.59;99789.81;4954327;28;20121;-67
2021/03/22 00:40:47;;;;;;;31.33;6.93;;;;;;;16.43;67.97;99800.50;4971859;28;20431;-67
2021/03/22 00:43:14;;;;;;;43.20;8.07;;;;;;;16.50;68.01;99799.44;4971512;28;20047;-67
2021/03/22 00:45:41;;;;;;;36.58;6.25;;;;;;;16.58;67.91;99796.59;4972988;28;20391;-66
2021/03/22 00:48:09;;;;;;;30.70;7.50;;;;;;;16.64;68.00;99794.69;4957678;28;20604;-66
2021/03/22 00:50:39;;;;;;;26.98;6.15;;;;;;;16.67;68.26;99805.25;4960146;28;20041;-66
2021/03/22 00:53:08;;;;;;;28.42;6.28;;;;;;;16.68;68.12;99806.13;4973804;28;20122;-66
2021/03/22 00:55:35;;;;;;;29.63;6.53;;;;;;;16.65;68.15;99815.09;4967696;28;20543;-67
2021/03/22 00:58:02;;;;;;;27.95;5.38;;;;;;;16.66;68.27;99803.53;4973964;28;20082;-66
2021/03/22 01:00:34;;;;;;;27.77;5.70;;;;;;;16.71;68.40;99808.75;4971591;28;20031;-66
2021/03/22 01:03:01;;;;;;;29.40;6.43;;;;;;;16.72;68.45;99808.72;4971077;28;20041;-66
2021/03/22 01:05:28;;;;;;;24.80;6.75;;;;;;;16.73;68.58;99810.47;4971651;28;20055;-66
2021/03/22 01:07:55;;;;;;;32.55;6.88;;;;;;;16.72;68.42;99805.16;4972409;28;20141;-67
2021/03/22 01:10:29;;;;;;;22.05;6.28;;;;;;;16.71;68.53;99817.63;4961130;28;20106;-67
2021/03/22 01:12:56;;;;;;;29.33;7.27;;;;;;;16.64;68.85;99824.00;4954216;28;20187;-66
2021/03/22 01:15:24;;;;;;;25.60;6.47;;;;;;;16.57;69.08;99810.81;4963481;28;20043;-66
2021/03/22 01:17:53;;;;;;;27.25;5.97;;;;;;;16.52;69.16;99818.94;4972904;28;20070;-66
2021/03/22 01:20:25;;;;;;;28.92;7.55;;;;;;;16.54;69.72;99816.25;4970954;28;20134;-67
2021/03/22 01:22:52;;;;;;;32.72;7.20;;;;;;;16.51;69.80;99813.66;4973434;28;20046;-66
2021/03/22 01:25:20;;;;;;;23.63;6.45;;;;;;;16.51;70.13;99829.63;4969008;28;20036;-65
2021/03/22 01:27:47;;;;;;;26.17;7.88;;;;;;;16.50;70.30;99825.22;4968579;28;20050;-65
2021/03/22 01:30:19;;;;;;;24.42;6.53;;;;;;;16.49;70.44;99839.44;4961086;28;20090;-68
2021/03/22 01:32:47;;;;;;;32.17;6.75;;;;;;;16.48;70.67;99843.00;4969049;28;20154;-66
2021/03/22 01:35:14;;;;;;;37.28;7.38;;;;;;;16.57;70.72;99843.69;4972549;28;20105;-65
2021/03/22 01:37:41;;;;;;;25.20;6.18;;;;;;;16.47;71.16;99850.16;4971810;28;20615;-66
2021/03/22 01:40:20;;;;;;;35.67;8.23;;;;;;;16.51;71.65;99853.59;4969930;28;20114;-65
2021/03/22 01:42:58;;;;;;;43.60;7.65;;;;;;;16.46;71.75;99840.41;4959077;28;20051;-68
2021/03/22 01:45:25;;;;;;;29.55;7.47;;;;;;;16.38;72.08;99844.16;4959982;28;20114;-67
2021/03/22 01:47:52;;;;;;;39.05;8.30;;;;;;;16.31;72.79;99846.94;4954181;28;20043;-67
2021/03/22 01:50:23;;;;;;;27.35;8.57;;;;;;;16.24;73.11;99852.44;4968836;28;20045;-67
2021/03/22 01:52:51;;;;;;;30.65;9.50;;;;;;;16.20;73.31;99843.66;4967522;28;20058;-67
2021/03/22 01:55:20;;;;;;;40.55;8.80;;;;;;;16.17;73.74;99837.50;4952425;28;20075;-67
2021/03/22 01:57:49;;;;;;;43.83;9.45;;;;;;;16.20;74.33;99840.13;4953248;28;20520;-67
2021/03/22 02:00:27;;;;;;;21.02;7.72;;;;;;;16.24;74.93;99845.34;4962495;28;20450;-68
2021/03/22 02:02:57;;;;;;;39.25;10.57;;;;;;;16.25;75.34;99841.75;4970635;28;20129;-67
2021/03/22 02:05:27;;;;;;;32.95;9.02;;;;;;;16.24;75.61;99848.00;4962085;28;20039;-67
2021/03/22 02:08:01;;;;;;;28.08;10.32;;;;;;;16.27;76.25;99855.94;4963935;28;20049;-67
2021/03/22 02:10:28;;;;;;;36.85;10.75;;;;;;;16.30;76.22;99857.63;4971948;28;20053;-67
2021/03/22 02:12:56;;;;;;;35.53;10.48;;;;;;;16.32;76.35;99855.81;4971948;28;20133;-67
2021/03/22 02:15:24;;;;;;;35.95;10.05;;;;;;;16.31;76.50;99856.72;4959277;28;20126;-67
2021/03/22 02:18:02;;;;;;;39.58;11.40;;;;;;;16.34;76.62;99851.34;4955328;28;20067;-67
2021/03/22 02:21:17;;;;;;;33.85;10.27;;;;;;;16.33;76.88;99849.59;4969222;28;20039;-67
2021/03/22 02:24:23;;;;;;;29.80;8.38;;;;;;;16.32;76.94;99856.69;4912126;29;20068;-67
2021/03/22 02:27:17;;;;;;;38.67;9.68;;;;;;;16.31;76.96;99868.25;4926214;29;20117;-67
2021/03/22 02:30:10;;;;;;;43.38;10.52;;;;;;;16.31;77.00;99862.94;4963657;28;20142;-67
2021/03/22 02:33:23;;;;;;;35.70;7.97;;;;;;;16.27;76.97;99871.91;4968517;28;20037;-67
2021/03/22 02:36:02;;;;;;;25.67;6.38;;;;;;;16.13;76.50;99881.09;4943040;28;20039;-67
2021/03/22 02:38:33;;;;;;;25.33;7.78;;;;;;;15.95;76.10;99867.25;4953348;28;20050;-67
2021/03/22 02:41:05;;;;;;;34.08;9.55;;;;;;;15.87;75.99;99863.00;4953733;28;20122;-67
2021/03/22 02:43:35;;;;;;;30.43;9.27;;;;;;;15.86;75.92;99880.75;4968360;28;20105;-67
2021/03/22 02:46:04;;;;;;;28.98;9.43;;;;;;;15.83;75.88;99885.25;4962201;28;20377;-67
2021/03/22 02:48:33;;;;;;;42.72;10.45;;;;;;;15.79;75.56;99891.56;4963465;28;20255;-68
2021/03/22 02:51:13;;;;;;;31.98;9.43;;;;;;;15.77;75.32;99896.03;4952400;28;20122;-67
2021/03/22 02:53:57;;;;;;;26.05;6.85;;;;;;;15.63;74.77;99890.97;4967582;28;20045;-67
2021/03/22 02:56:35;;;;;;;32.75;6.78;;;;;;;15.42;74.72;99883.38;4952113;28;20066;-67
2021/03/22 02:59:09;;;;;;;23.00;6.88;;;;;;;15.39;74.93;99888.72;4956973;28;20069;-68
2021/03/22 03:01:41;;;;;;;31.30;9.30;;;;;;;15.44;74.71;99892.19;4962000;28;20042;-67
2021/03/22 03:04:10;;;;;;;30.10;7.15;;;;;;;15.41;74.38;99897.56;4971259;28;20122;-67
2021/03/22 03:06:51;;;;;;;21.98;6.78;;;;;;;15.39;74.39;99884.28;4971115;28;20035;-67
2021/03/22 03:09:20;;;;;;;28.20;7.95;;;;;;;15.36;74.18;99883.47;4966977;28;20069;-67
2021/03/22 03:11:48;;;;;;;19.23;6.90;;;;;;;15.31;73.83;99890.63;4955998;28;20561;-67
2021/03/22 03:14:15;;;;;;;19.23;6.63;;;;;;;15.26;73.50;99895.16;4963877;28;20053;-67
2021/03/22 03:16:43;;;;;;;24.60;5.35;;;;;;;15.10;73.54;99903.41;4971286;28;20027;-67
2021/03/22 03:19:10;;;;;;;24.00;6.30;;;;;;;14.94;73.56;99904.56;4961297;28;20063;-68
2021/03/22 03:21:38;;;;;;;28.48;7.53;;;;;;;14.87;73.63;99910.88;4971271;28;20061;-68
2021/03/22 03:24:09;;;;;;;25.95;6.78;;;;;;;14.84;73.92;99902.94;4965495;28;20043;-67
2021/03/22 03:26:37;;;;;;;28.95;6.47;;;;;;;14.81;73.92;99908.31;4951750;28;20039;-67
2021/03/22 03:29:05;;;;;;;25.40;7.25;;;;;;;14.86;73.75;99910.91;4952175;28;20118;-67
2021/03/22 03:31:33;;;;;;;32.83;12.77;;;;;;;14.91;73.51;99917.88;4965721;28;20043;-67
2021/03/22 03:34:00;;;;;;;37.15;15.07;;;;;;;14.95;73.45;99918.75;4970527;28;20133;-67
2021/03/22 03:36:28;;;;;;;36.90;20.50;;;;;;;14.87;73.47;99923.28;4969084;28;20049;-67
2021/03/22 03:38:55;;;;;;;32.17;10.27;;;;;;;14.80;73.78;99911.88;4969675;28;20054;-67
2021/03/22 03:41:23;;;;;;;28.45;7.25;;;;;;;14.85;73.78;99917.09;4969586;28;20039;-67
2021/03/22 03:43:51;;;;;;;31.50;8.07;;;;;;;14.86;73.36;99916.22;4964342;28;20063;-67
2021/03/22 03:46:39;;;;;;;22.85;6.93;;;;;;;14.82;73.19;99907.41;4970438;28;20035;-67
2021/03/22 03:49:07;;;;;;;32.85;5.95;;;;;;;14.73;73.08;99904.91;4958233;28;20126;-67
2021/03/22 03:51:37;;;;;;;21.85;6.35;;;;;;;14.67;73.16;99905.88;4952656;28;20040;-67
2021/03/22 03:54:04;;;;;;;28.92;11.50;;;;;;;14.59;73.40;99915.72;4965179;28;20121;-67
2021/03/22 03:56:33;;;;;;;31.60;10.73;;;;;;;14.48;73.67;99924.75;4969203;28;20125;-67
2021/03/22 03:59:00;;;;;;;41.08;16.55;;;;;;;14.31;74.10;99917.84;4969255;28;20399;-67
2021/03/22 04:01:27;;;;;;;30.67;9.68;;;;;;;14.23;74.95;99921.50;4970391;28;20125;-67
2021/03/22 04:03:55;;;;;;;29.33;8.75;;;;;;;14.32;74.70;99926.69;4957446;28;20055;-67
2021/03/22 04:06:24;;;;;;;25.33;9.00;;;;;;;14.36;74.35;99934.63;4952193;28;20122;-67
2021/03/22 04:08:53;;;;;;;26.92;8.70;;;;;;;14.34;74.23;99925.78;4951817;28;20796;-67
2021/03/22 04:11:23;;;;;;;38.65;12.88;;;;;;;14.39;73.80;99927.50;4957278;28;20118;-67
2021/03/22 04:13:53;;;;;;;28.63;9.68;;;;;;;14.34;73.47;99916.94;4957041;28;20117;-67
2021/03/22 04:16:23;;;;;;;26.58;10.20;;;;;;;14.32;73.31;99924.91;4970215;28;20122;-67
2021/03/22 04:18:51;;;;;;;24.55;10.68;;;;;;;14.29;73.13;99922.31;4969808;28;20049;-67
2021/03/22 04:21:19;;;;;;;25.52;8.05;;;;;;;14.35;73.08;99921.34;4965588;28;20097;-67
2021/03/22 04:23:47;;;;;;;30.35;7.88;;;;;;;14.32;73.29;99937.31;4955255;28;20468;-67
2021/03/22 04:26:15;;;;;;;28.08;8.68;;;;;;;14.29;73.70;99919.66;4963127;28;20086;-66
2021/03/22 04:28:42;;;;;;;30.02;9.07;;;;;;;14.30;74.18;99926.72;4955653;28;20059;-67
2021/03/22 04:31:12;;;;;;;33.92;10.38;;;;;;;14.20;74.80;99935.69;4972690;28;20039;-67
2021/03/22 04:33:39;;;;;;;38.83;11.55;;;;;;;14.17;75.37;99941.06;4973994;28;20539;-67
2021/03/22 04:36:07;;;;;;;44.97;16.60;;;;;;;14.21;75.42;99941.88;4974036;28;20133;-67
2021/03/22 04:38:35;;;;;;;48.38;15.65;;;;;;;14.24;75.01;99950.66;4970351;28;20460;-67
2021/03/22 04:41:02;;;;;;;41.00;12.45;;;;;;;14.16;75.22;99938.41;4970334;28;20118;-67
2021/03/22 04:43:29;;;;;;;31.65;10.63;;;;;;;14.22;75.31;99939.22;4958548;28;20477;-67
2021/03/22 04:45:56;;;;;;;34.10;12.65;;;;;;;14.41;75.60;99939.00;4954752;28;20504;-67
2021/03/22 04:48:24;;;;;;;36.45;9.48;;;;;;;14.59;75.82;99946.72;4954454;28;20058;-67
2021/03/22 04:50:51;;;;;;;29.42;7.05;;;;;;;14.75;76.19;99964.22;4955656;28;20508;-67
2021/03/22 04:53:19;;;;;;;21.30;7.28;;;;;;;14.92;76.32;99958.63;4954597;28;20071;-67
2021/03/22 04:55:46;;;;;;;20.30;6.15;;;;;;;15.08;76.60;99961.06;4967587;28;20146;-67
2021/03/22 04:58:13;;;;;;;29.42;6.70;;;;;;;15.26;76.61;99966.97;4955013;28;20070;-67
2021/03/22 05:00:44;;;;;;;19.20;6.28;;;;;;;15.41;76.55;99961.41;4960158;28;20125;-67
2021/03/22 05:03:13;;;;;;;26.40;5.78;;;;;;;15.56;76.59;99957.63;4972780;28;20039;-67
2021/03/22 05:05:41;;;;;;;19.60;5.40;;;;;;;15.70;76.14;99959.13;4973563;28;20134;-66
2021/03/22 05:08:11;;;;;;;25.00;5.22;;;;;;;15.84;75.10;99941.13;4965503;28;20058;-68
2021/03/22 05:10:41;;;;;;;23.33;5.53;;;;;;;16.06;74.20;99948.69;4953756;28;20123;-68
2021/03/22 05:13:10;;;;;;;22.45;5.80;;;;;;;16.27;73.79;99930.50;4967008;28;20055;-67
2021/03/22 05:15:37;;;;;;;33.17;5.80;;;;;;;16.50;73.73;99932.66;4959559;28;20058;-67
2021/03/22 05:18:04;;;;;;;27.73;5.80;;;;;;;16.70;73.50;99934.91;4964502;28;20548;-67
2021/03/22 05:20:34;;;;;;;29.75;5.28;;;;;;;16.92;73.10;99943.31;4953805;28;20476;-68
2021/03/22 05:23:03;;;;;;;24.17;5.63;;;;;;;17.10;72.75;99945.53;4963983;28;20558;-68
2021/03/22 05:25:30;;;;;;;25.30;6.25;;;;;;;17.24;72.44;99955.84;4956053;28;20244;-67
2021/03/22 05:27:58;;;;;;;22.42;5.80;;;;;;;17.35;72.54;99956.47;4956358;28;20032;-67
2021/03/22 05:30:26;;;;;;;32.53;5.60;;;;;;;17.48;72.45;99973.91;4969817;28;20050;-68
2021/03/22 05:32:57;;;;;;;28.33;6.63;;;;;;;17.66;72.48;99965.47;4955588;28;20397;-68
2021/03/22 05:35:26;;;;;;;33.78;5.97;;;;;;;17.77;71.94;99966.06;4964686;28;20562;-67
2021/03/22 05:37:54;;;;;;;28.83;6.50;;;;;;;17.93;71.66;99974.53;4971694;28;20071;-67
2021/03/22 05:40:25;;;;;;;26.98;6.60;;;;;;;18.06;71.04;99975.94;4972843;28;20054;-67
2021/03/22 05:43:04;;;;;;;32.67;5.40;;;;;;;18.20;70.43;99986.25;4964766;28;20085;-67
2021/03/22 05:45:48;;;;;;;29.88;6.72;;;;;;;18.29;69.71;99962.84;4971964;28;20058;-67
2021/03/22 05:48:34;;;;;;;27.67;6.03;;;;;;;18.43;68.79;99964.22;4976082;28;20471;-67
2021/03/22 05:51:26;;;;;;;27.17;5.38;;;;;;;18.50;68.22;99971.16;4972648;28;20039;-67
2021/03/22 05:54:04;;;;;;;27.67;6.80;;;;;;;18.62;67.54;99976.16;4972752;28;20050;-65
2021/03/22 05:56:41;;;;;;;28.75;5.95;;;;;;;18.72;67.14;99972.28;4970518;28;20993;-64
2021/03/22 05:59:26;;;;;;;23.58;5.20;;;;;;;18.86;66.53;99961.16;4972557;28;20062;-64
2021/03/22 06:02:00;;;;;;;27.27;6.13;;;;;;;18.94;65.76;99968.03;4971686;28;20521;-67
2021/03/22 06:04:34;;;;;;;29.45;5.93;;;;;;;19.07;65.28;99956.03;4972381;28;20050;-67
2021/03/22 06:07:03;;;;;;;36.20;7.18;;;;;;;19.19;64.54;99949.38;4971644;28;20043;-68
2021/03/22 06:09:35;;;;;;;33.35;5.57;;;;;;;19.27;63.94;99943.78;4971709;28;20495;-66
2021/03/22 06:12:17;;;;;;;36.45;8.55;;;;;;;19.36;63.46;99952.38;4971170;28;20039;-67
2021/03/22 06:14:51;;;;;;;28.20;6.82;;;;;;;19.41;63.65;99947.75;4979213;28;20068;-67
2021/03/22 06:17:25;;;;;;;23.15;5.63;;;;;;;19.48;63.59;99941.31;4976855;28;20043;-67
2021/03/22 06:19:57;;;;;;;39.05;9.07;;;;;;;19.56;63.35;99951.72;4972095;28;20130;-67
2021/03/22 06:22:29;;;;;;;20.95;6.68;;;;;;;19.64;63.13;99949.66;4972159;28;20053;-67
2021/03/22 06:24:57;;;;;;;33.25;7.25;;;;;;;19.75;63.25;99960.91;4970819;28;20039;-67
2021/03/22 06:27:27;;;;;;;38.50;7.00;;;;;;;19.92;63.14;99946.03;4970592;28;20035;-67
2021/03/22 06:29:56;;;;;;;35.53;8.32;;;;;;;20.02;62.98;99950.16;4971363;28;20070;-67
2021/03/22 06:32:40;;;;;;;38.63;9.30;;;;;;;20.16;62.61;99950.50;4968467;28;20043;-67
2021/03/22 06:35:14;;;;;;;40.95;9.93;;;;;;;20.33;62.15;99948.13;4967723;28;20062;-67
2021/03/22 06:37:41;;;;;;;31.15;7.15;;;;;;;20.44;62.02;99961.97;4964304;28;20059;-67
2021/03/22 06:40:12;;;;;;;27.80;5.78;;;;;;;20.62;61.51;99976.50;4964023;28;20039;-67
2021/03/22 06:42:41;;;;;;;31.30;7.45;;;;;;;20.73;60.99;99987.72;4970054;28;20038;-67
2021/03/22 06:45:31;;;;;;;39.42;8.13;;;;;;;20.83;60.21;99999.81;4969822;28;20122;-67
2021/03/22 06:48:26;;;;;;;36.13;5.43;;;;;;;21.00;59.64;100031.38;4952524;28;20050;-67
2021/03/22 06:51:15;;;;;;;33.33;7.22;;;;;;;21.12;59.43;100013.91;4966499;28;20039;-67
2021/03/22 06:53:45;;;;;;;26.08;6.30;;;;;;;21.29;59.12;100020.41;4965588;28;20547;-67
2021/03/22 06:56:15;;;;;;;33.95;7.55;;;;;;;21.53;58.11;100026.56;4966662;28;20042;-68
2021/03/22 06:58:45;;;;;;;32.65;6.30;;;;;;;21.77;57.63;100040.81;4965908;28;20085;-67
2021/03/22 07:01:25;;;;;;;27.80;5.93;;;;;;;22.02;56.85;100046.94;4968714;28;20106;-68
2021/03/22 07:03:52;;;;;;;30.13;6.15;;;;;;;22.25;56.98;100038.72;4965234;28;20067;-67
2021/03/22 07:06:21;;;;;;;39.25;7.75;;;;;;;22.46;56.45;100049.47;4966286;28;20117;-67
2021/03/22 07:08:50;;;;;;;32.05;6.32;;;;;;;22.63;56.29;100057.69;4964836;28;20062;-67
2021/03/22 07:11:20;;;;;;;32.40;7.47;;;;;;;22.77;55.21;100044.50;4963835;28;20045;-67
2021/03/22 07:14:05;;;;;;;31.98;6.03;;;;;;;22.88;54.43;100047.56;4965737;28;20045;-67
2021/03/22 07:16:34;;;;;;;31.08;7.07;;;;;;;23.04;54.47;100034.25;4970340;28;20507;-67
2021/03/22 07:19:14;;;;;;;28.40;7.22;;;;;;;23.20;53.92;100029.91;4969962;28;20102;-68
2021/03/22 07:21:53;;;;;;;26.42;10.10;;;;;;;23.25;53.56;100044.00;4962331;28;20042;-68
2021/03/22 07:24:37;;;;;;;23.52;5.13;;;;;;;23.01;53.47;100061.34;4959978;28;20049;-68
2021/03/22 07:27:20;;;;;;;23.48;5.72;;;;;;;22.89;54.04;100059.22;4963149;28;20039;-68
2021/03/22 07:30:16;;;;;;;25.42;4.90;;;;;;;23.01;53.73;100066.72;4972511;28;20075;-68
2021/03/22 07:32:49;;;;;;;20.70;6.43;;;;;;;23.12;54.16;100066.19;4968533;28;20038;-68
2021/03/22 07:35:41;;;;;;;27.75;5.95;;;;;;;23.26;54.18;100079.91;4959651;28;20039;-66
2021/03/22 07:38:17;;;;;;;22.33;6.00;;;;;;;23.45;54.74;100076.25;4968702;28;20510;-66
2021/03/22 07:40:51;;;;;;;50.40;24.40;;;;;;;23.52;55.76;100075.97;4968961;28;22030;-65
2021/03/22 07:43:42;;;;;;;25.67;7.53;;;;;;;23.64;55.58;100076.25;4970858;28;20075;-66
2021/03/22 07:46:21;;;;;;;27.60;6.63;;;;;;;23.64;55.84;100075.38;4970558;28;20753;-65
2021/03/22 07:49:12;;;;;;;32.78;5.88;;;;;;;23.90;55.54;100085.75;4969364;28;20407;-68
2021/03/22 07:52:06;;;;;;;18.92;4.50;;;;;;;24.02;55.48;100093.25;4967726;28;20046;-68
2021/03/22 07:54:45;;;;;;;21.37;4.70;;;;;;;24.12;55.77;100093.63;4969823;28;20050;-68
2021/03/22 07:57:22;;;;;;;38.03;14.10;;;;;;;24.45;54.77;100091.06;4971094;28;20905;-68
2021/03/22 07:59:55;;;;;;;21.25;5.78;;;;;;;24.67;54.30;100093.50;4974975;28;20114;-68
2021/03/22 08:02:35;;;;;;;24.45;6.57;;;;;;;24.87;53.50;100094.19;4973605;28;20070;-68
2021/03/22 08:05:12;;;;;;;26.60;5.82;;;;;;;25.05;53.56;100077.97;4972452;28;20054;-68
2021/03/22 08:07:56;;;;;;;30.88;5.88;;;;;;;25.05;54.30;100065.34;4972658;28;20042;-66
2021/03/22 08:10:47;;;;;;;30.63;9.88;;;;;;;25.15;53.14;100076.50;4972720;28;20126;-66
2021/03/22 08:13:45;;;;;;;37.63;16.80;;;;;;;25.01;52.97;100061.91;4973295;28;20134;-66
2021/03/22 08:16:27;;;;;;;27.83;8.32;;;;;;;24.73;53.45;100053.56;4960708;28;20058;-67
2021/03/22 08:18:57;;;;;;;36.33;16.45;;;;;;;24.85;53.19;100049.31;4974766;28;20137;-66
2021/03/22 08:21:30;;;;;;;29.40;7.47;;;;;;;24.84;53.16;100048.44;4974195;28;20142;-66
2021/03/22 08:24:00;;;;;;;24.25;6.38;;;;;;;24.69;53.28;100043.84;4973869;28;20070;-66
2021/03/22 08:26:31;;;;;;;27.10;7.25;;;;;;;24.59;53.72;100048.03;4976427;28;20038;-65
2021/03/22 08:29:10;;;;;;;17.35;5.28;;;;;;;24.94;53.44;100041.59;4974122;28;20106;-66
2021/03/22 08:31:49;;;;;;;20.52;5.40;;;;;;;25.05;52.80;100040.16;4974151;28;20066;-66
2021/03/22 08:34:22;;;;;;;21.90;4.75;;;;;;;24.81;52.42;100032.38;4972143;28;20113;-66
2021/03/22 08:37:01;;;;;;;24.20;5.07;;;;;;;24.88;52.12;100031.09;4972426;28;20117;-66
2021/03/22 08:39:32;;;;;;;28.77;6.10;;;;;;;24.90;52.05;100031.06;5002254;28;20031;-66
2021/03/22 08:42:08;;;;;;;21.45;4.70;;;;;;;24.73;51.62;100029.25;4972359;28;20038;-68
2021/03/22 08:44:39;;;;;;;20.92;5.28;;;;;;;24.82;51.54;100028.75;4971871;28;20062;-66
2021/03/22 08:47:40;;;;;;;20.83;4.43;;;;;;;24.93;51.35;100015.56;4972394;28;20043;-68
2021/03/22 08:50:11;;;;;;;28.55;5.85;;;;;;;25.02;51.16;100016.88;4960339;28;20043;-66
2021/03/22 08:52:42;;;;;;;21.67;5.40;;;;;;;25.06;50.48;99999.56;4972962;28;20055;-66
2021/03/22 08:55:15;;;;;;;22.60;5.28;;;;;;;24.96;50.86;100007.28;4971258;28;20042;-66
2021/03/22 08:57:57;;;;;;;31.93;7.83;;;;;;;25.09;50.62;100006.59;4972824;28;20169;-68
2021/03/22 09:00:39;;;;;;;22.15;6.20;;;;;;;25.34;49.69;100009.63;4972712;28;20194;-68
2021/03/22 09:03:29;;;;;;;21.67;6.43;;;;;;;25.43;49.23;100006.41;4971635;28;20411;-68
2021/03/22 09:06:13;;;;;;;25.58;6.03;;;;;;;25.33;49.25;99995.28;4968342;28;20046;-68
2021/03/22 09:08:41;;;;;;;;;;;;;;;25.20;49.67;99996.94;4954899;28;20039;-68
2021/03/22 09:11:22;;;;;;;22.10;4.85;;;;;;;24.98;49.73;99985.59;4955840;28;20371;-68
2021/03/22 09:13:55;;;;;;;24.48;4.72;;;;;;;25.02;50.23;99981.75;4972299;28;20146;-66
2021/03/22 09:16:41;;;;;;;21.42;5.07;;;;;;;25.14;49.88;99978.34;4971655;28;20524;-66
2021/03/22 09:19:30;;;;;;;24.25;5.15;;;;;;;25.26;49.92;99991.19;4972515;28;20232;-66
2021/03/22 09:22:34;;;;;;;20.77;5.03;;;;;;;25.31;49.76;99988.22;4972341;28;20058;-66
2021/03/22 09:25:04;;;;;;;24.05;4.70;;;;;;;25.13;50.42;99976.63;4968713;28;20130;-65
2021/03/22 09:27:34;;;;;;;22.05;4.63;;;;;;;25.05;50.65;99981.59;4970457;28;20130;-66
2021/03/22 09:30:35;;;;;;;16.17;3.95;;;;;;;24.83;50.44;99989.97;4970643;28;20039;-65
2021/03/22 09:33:02;;;;;;;27.05;5.10;;;;;;;25.17;50.18;99999.81;4971427;28;20046;-66
2021/03/22 09:36:04;;;;;;;22.85;5.45;;;;;;;25.52;48.83;100003.19;4970882;28;20121;-66
2021/03/22 09:38:40;;;;;;;21.27;5.60;;;;;;;25.47;49.05;100009.84;4972103;28;20038;-66
2021/03/22 09:41:09;;;;;;;26.02;6.32;;;;;;;25.67;48.51;100001.44;4971651;28;20039;-66
2021/03/22 09:43:39;;;;;;;25.85;5.25;;;;;;;25.65;48.00;100003.38;4971880;28;20174;-66
2021/03/22 09:46:28;;;;;;;24.10;6.05;;;;;;;25.45;47.72;99996.41;4973256;28;20066;-66
2021/03/22 09:49:27;;;;;;;27.35;5.07;;;;;;;25.53;47.94;100009.47;4970949;28;20046;-66
2021/03/22 09:52:24;;;;;;;22.00;5.82;;;;;;;25.70;48.01;100001.28;4971838;28;20113;-66
2021/03/22 09:54:52;;;;;;;27.75;5.57;;;;;;;25.73;48.16;100001.09;4970050;28;20057;-66
2021/03/22 09:57:39;;;;;;;23.55;5.55;;;;;;;25.88;47.72;100004.72;4968657;28;20038;-66
2021/03/22 10:00:29;;;;;;;30.65;4.88;;;;;;;25.83;47.59;99999.59;4971110;28;20038;-65
2021/03/22 10:02:57;;;;;;;31.58;6.45;;;;;;;25.67;47.62;100002.31;4971597;28;20047;-66
2021/03/22 10:05:28;;;;;;;38.75;7.38;;;;;;;25.58;47.80;100005.56;4972496;28;20047;-66
2021/03/22 10:08:22;;;;;;;29.92;5.65;;;;;;;25.61;47.92;100001.81;4971143;28;20138;-66
2021/03/22 10:10:52;;;;;;;35.80;11.18;;;;;;;25.43;48.15;100009.13;4972250;28;20050;-66
2021/03/22 10:13:28;;;;;;;32.28;10.85;;;;;;;25.50;48.19;100018.63;4969417;28;20062;-68
2021/03/22 10:15:58;;;;;;;27.30;6.28;;;;;;;25.58;48.09;100008.28;4963095;28;20057;-68
2021/03/22 10:18:34;;;;;;;34.17;6.55;;;;;;;25.55;47.63;100011.13;4969518;28;20097;-68
2021/03/22 10:21:08;;;;;;;28.10;5.70;;;;;;;25.67;47.27;100014.97;4970418;28;20640;-68
2021/03/22 10:23:38;;;;;;;;;;;;;;;25.73;47.06;100020.03;4968229;28;20035;-67
2021/03/22 10:26:11;;;;;;;28.33;6.97;;;;;;;25.81;46.65;100020.44;4969547;28;20009;-68
2021/03/22 10:28:41;;;;;;;22.92;5.10;;;;;;;26.01;45.81;100016.53;4969571;28;20661;-68
2021/03/22 10:31:16;;;;;;;26.77;6.22;;;;;;;26.03;45.70;100020.91;4969615;28;20046;-68
2021/03/22 10:33:48;;;;;;;30.52;6.38;;;;;;;26.35;45.32;100012.69;4965140;28;20105;-68
2021/03/22 10:36:25;;;;;;;25.33;5.32;;;;;;;26.76;44.27;100002.88;4969160;28;20053;-67
2021/03/22 10:38:55;;;;;;;28.13;6.05;;;;;;;27.13;42.13;100000.53;4967228;28;20042;-67
2021/03/22 10:41:30;;;;;;;37.58;6.70;;;;;;;27.26;41.04;100001.47;4971539;28;20051;-68
2021/03/22 10:44:01;;;;;;;26.17;4.75;;;;;;;27.29;40.78;100004.00;4971064;28;20047;-68
2021/03/22 10:46:31;;;;;;;25.55;5.07;;;;;;;27.26;40.98;99996.06;4971818;28;20041;-67
2021/03/22 10:49:08;;;;;;;28.10;6.85;;;;;;;27.15;41.33;99983.22;4970497;28;20047;-68
2021/03/22 10:51:41;;;;;;;30.58;7.07;;;;;;;27.22;41.07;99976.41;4971790;28;20042;-68
2021/03/22 10:54:13;;;;;;;35.83;8.23;;;;;;;27.24;40.40;99966.31;4969173;28;20086;-68
2021/03/22 10:56:48;;;;;;;28.13;8.52;;;;;;;27.26;40.48;99961.69;4957466;28;20039;-68
2021/03/22 10:59:20;;;;;;;27.60;8.57;;;;;;;27.25;40.40;99953.66;4971458;28;20035;-68
2021/03/22 11:01:50;;;;;;;29.67;6.80;;;;;;;27.23;40.11;99956.47;4960006;28;20050;-66
2021/03/22 11:04:21;;;;;;;29.00;6.97;;;;;;;27.17;39.47;99966.84;4956981;28;20042;-66
2021/03/22 11:06:50;;;;;;;31.75;7.05;;;;;;;27.08;39.82;99972.88;4965890;28;20050;-65
2021/03/22 11:09:21;;;;;;;35.35;8.60;;;;;;;26.96;40.81;99974.53;4964606;28;20067;-66
2021/03/22 11:11:48;;;;;;;32.58;7.68;;;;;;;26.70;42.09;99976.19;4966564;28;20066;-66
2021/03/22 11:14:20;;;;;;;37.65;10.00;;;;;;;26.58;43.49;99982.38;4964416;28;20396;-65
2021/03/22 11:16:47;;;;;;;36.95;8.38;;;;;;;26.33;44.69;99983.00;4971662;28;20733;-65
2021/03/22 11:19:27;;;;;;;26.33;6.22;;;;;;;26.19;44.86;99988.38;4959980;28;20054;-66
2021/03/22 11:21:56;;;;;;;26.42;6.38;;;;;;;25.75;45.64;99966.72;4971108;28;20134;-69
2021/03/22 11:24:38;;;;;;;28.77;6.97;;;;;;;25.37;46.69;99974.34;4969242;28;20047;-65
2021/03/22 11:27:07;;;;;;;38.00;7.97;;;;;;;25.19;47.26;99967.31;4968193;28;20123;-68
2021/03/22 11:29:49;;;;;;;34.55;8.82;;;;;;;25.16;46.97;99954.81;4969245;28;20146;-67
2021/03/22 11:32:20;;;;;;;32.53;8.77;;;;;;;25.08;47.28;99937.31;4970964;28;20043;-68
2021/03/22 11:34:48;;;;;;;38.45;9.57;;;;;;;24.91;47.61;99979.66;4970297;28;20125;-67
2021/03/22 11:37:19;;;;;;;31.63;8.40;;;;;;;24.80;47.66;99956.91;4970785;28;20062;-67
2021/03/22 11:39:47;;;;;;;39.90;8.05;;;;;;;24.62;48.02;99967.72;4968816;28;20419;-67
2021/03/22 11:42:26;;;;;;;27.23;7.38;;;;;;;24.42;48.27;99969.78;4970047;28;20805;-67
2021/03/22 11:44:54;;;;;;;27.63;6.97;;;;;;;24.36;48.54;99970.97;4964515;28;20039;-67
2021/03/22 11:47:39;;;;;;;32.42;5.38;;;;;;;24.52;48.51;99977.31;4968270;28;20122;-68
2021/03/22 11:50:38;;;;;;;37.38;8.18;;;;;;;24.40;48.38;99975.28;4959987;28;20408;-67
2021/03/22 11:53:09;;;;;;;31.10;8.35;;;;;;;24.10;48.59;99953.44;4943335;28;20103;-67